To NAV CANADA Home Page Login to a new session Search on AWWS site Feedback and Comments Disclaimer Vers la page française équivalente Tips FAQ What's new on the site To the Forecasts and Observations / NOTAM section To "File a Flight Plan" website Publications and other links Update of the User's profile FIC Telephone Numbers My Weather Data Folder Route Weather Data Regional Weather Data Local Weather Data To the Forecasts and Observations / NOTAM section
Request Generated 12/04/2016 at 22:22:18 UTC . Weather information available at that time is displayed.

METAR/TAF

SCHEFFERVILLE/QC    (show WxCam)

SPECI CYKL 042209Z AUTO 30004KT 6SM -SN SCT026 OVC034 M12/M13 A2986
RMK SLP160=
METAR CYKL 042200Z AUTO 30005KT 4SM -SN OVC030 M11/M12 A2986 RMK
SLP160=
SPECI CYKL 042154Z AUTO 31007KT 5SM -SN OVC030 M11/M12 A2986 RMK
SLP160=
METAR CYKL 042100Z AUTO 32003KT 8SM -SN OVC030 M11/M12 A2986 RMK
SLP158=
METAR CYKL 042000Z AUTO 32006KT 9SM -SN OVC032 M11/M12 A2985 RMK
SLP154=

TAF CYKL 041938Z 0420/0508 31006KT P6SM OVC030 TEMPO 0420/0508 5SM
-SN SCT008 OVC020
RMK FCST BASED ON AUTO OBS. NXT FCST BY 050200Z=
Your time UTC time
Weather data provided by Environment Canada and NAV CANADA